createdAt,value
2019-02-20T00:04:47.007Z,11
2019-02-20T00:09:49.534Z,14
2019-02-20T00:14:52.112Z,13
2019-02-20T00:19:54.439Z,13
2019-02-20T00:24:56.866Z,13
2019-02-20T00:29:59.336Z,15
2019-02-20T00:35:01.852Z,15
2019-02-20T00:40:04.241Z,13
2019-02-20T00:45:06.765Z,14
2019-02-20T00:50:09.293Z,13
2019-02-20T00:55:11.642Z,14
2019-02-20T01:00:14.119Z,13
2019-02-20T01:05:16.601Z,14
2019-02-20T01:10:19.111Z,12
2019-02-20T01:15:21.531Z,13
2019-02-20T01:20:23.994Z,13
2019-02-20T01:25:26.465Z,13
2019-02-20T01:30:28.906Z,12
2019-02-20T01:35:31.490Z,16
2019-02-20T01:40:33.924Z,13
2019-02-20T01:45:36.286Z,13
2019-02-20T01:50:39.065Z,15
2019-02-20T01:55:41.253Z,15
2019-02-20T02:00:43.692Z,15
2019-02-20T02:05:46.293Z,13
2019-02-20T02:10:48.692Z,14
2019-02-20T02:15:51.101Z,12
2019-02-20T02:20:53.552Z,15
2019-02-20T02:25:56.010Z,15
2019-02-20T02:30:58.543Z,15
2019-02-20T02:36:00.951Z,15
2019-02-20T02:41:03.407Z,17
2019-02-20T02:46:05.926Z,16
2019-02-20T02:51:08.349Z,14
2019-02-20T02:56:10.806Z,14
2019-02-20T03:01:13.428Z,17
2019-02-20T03:06:15.747Z,15
2019-02-20T03:11:18.213Z,13
2019-02-20T03:16:20.735Z,13
2019-02-20T03:21:23.136Z,16
2019-02-20T03:26:25.603Z,15
2019-02-20T03:31:28.099Z,16
2019-02-20T03:36:30.603Z,15
2019-02-20T03:41:32.997Z,15
2019-02-20T03:46:35.483Z,14
2019-02-20T03:51:37.944Z,15
2019-02-20T03:56:40.407Z,15
2019-02-20T04:01:42.861Z,12
2019-02-20T04:06:45.328Z,14
2019-02-20T04:11:47.878Z,16
2019-02-20T04:16:50.258Z,15
2019-02-20T04:21:52.765Z,15
2019-02-20T04:26:55.174Z,15
2019-02-20T04:31:57.645Z,14
2019-02-20T04:37:00.241Z,13
2019-02-20T04:42:02.586Z,15
2019-02-20T04:47:05.049Z,14
2019-02-20T04:52:07.514Z,18
2019-02-20T04:57:10.016Z,15
2019-02-20T05:02:17.518Z,16
2019-02-20T05:07:15.258Z,17
2019-02-20T05:12:17.446Z,15
2019-02-20T05:17:19.821Z,13
2019-02-20T05:22:22.433Z,14
2019-02-20T05:27:24.751Z,15
2019-02-20T05:32:27.235Z,15
2019-02-20T05:37:29.697Z,15
2019-02-20T05:42:32.142Z,14
2019-02-20T05:47:34.627Z,14
2019-02-20T05:52:37.039Z,16
2019-02-20T05:57:39.500Z,14
2019-02-20T06:02:41.960Z,14
2019-02-20T06:07:44.444Z,14
2019-02-20T06:12:46.890Z,13
2019-02-20T06:17:49.351Z,14
2019-02-20T06:22:51.860Z,13
2019-02-20T06:27:54.293Z,16
2019-02-20T06:32:56.748Z,13
2019-02-20T06:37:59.248Z,14
2019-02-20T06:43:01.678Z,13
2019-02-20T06:48:04.116Z,14
2019-02-20T06:53:06.871Z,15
2019-02-20T06:58:09.032Z,14
2019-02-20T07:03:11.535Z,15
2019-02-20T07:08:13.967Z,12
2019-02-20T07:13:16.427Z,14
2019-02-20T07:18:18.878Z,14
2019-02-20T07:23:21.311Z,13
2019-02-20T07:28:23.807Z,13
2019-02-20T07:33:26.232Z,14
2019-02-20T07:38:28.685Z,13
2019-02-20T07:43:31.194Z,12
2019-02-20T07:48:33.601Z,12
2019-02-20T07:53:36.044Z,14
2019-02-20T07:58:38.628Z,11
2019-02-20T08:03:40.969Z,13
2019-02-20T08:08:43.462Z,13
2019-02-20T08:13:45.914Z,12
2019-02-20T08:18:48.372Z,13
2019-02-20T08:23:50.863Z,13
2019-02-20T08:28:53.249Z,11
2019-02-20T08:33:55.733Z,11
2019-02-20T08:38:58.227Z,11
2019-02-20T08:44:00.652Z,11
2019-02-20T08:49:03.105Z,12
2019-02-20T08:54:05.581Z,14
2019-02-20T08:59:07.994Z,10
2019-02-20T09:04:10.448Z,12
2019-02-20T09:09:12.922Z,10
2019-02-20T09:14:15.362Z,11
2019-02-20T09:19:17.858Z,12
2019-02-20T09:24:20.291Z,11
2019-02-20T09:29:22.729Z,10
2019-02-20T09:34:25.211Z,11
2019-02-20T09:39:27.679Z,10
2019-02-20T09:44:30.113Z,10
2019-02-20T09:49:32.679Z,9
2019-02-20T09:54:35.019Z,8
2019-02-20T09:59:37.484Z,7
2019-02-20T10:04:39.955Z,7
2019-02-20T10:09:42.449Z,7
2019-02-20T10:14:45.190Z,7
2019-02-20T10:19:47.397Z,7
2019-02-20T10:24:49.789Z,6
2019-02-20T10:29:52.229Z,6
2019-02-20T10:34:54.677Z,7
2019-02-20T10:39:57.286Z,7
2019-02-20T10:44:59.613Z,8
2019-02-20T10:55:04.649Z,6
2019-02-20T11:00:12.009Z,7
2019-02-20T11:05:09.452Z,6
2019-02-20T11:10:11.922Z,6
2019-02-20T11:15:14.393Z,6
2019-02-20T11:20:16.875Z,6
2019-02-20T11:25:19.287Z,6
2019-02-20T11:30:21.766Z,7
2019-02-20T11:35:24.220Z,6
2019-02-20T11:40:26.653Z,6
2019-02-20T11:45:29.200Z,6
2019-02-20T11:50:31.584Z,6
2019-02-20T11:55:34.052Z,8
2019-02-20T12:00:36.524Z,9
2019-02-20T12:05:38.953Z,8
2019-02-20T12:10:41.445Z,8
2019-02-20T12:15:43.922Z,7
2019-02-20T12:20:46.391Z,8
2019-02-20T12:25:48.768Z,8
2019-02-20T12:30:51.230Z,9
2019-02-20T12:35:53.858Z,10
2019-02-20T12:40:56.155Z,12
2019-02-20T12:45:58.588Z,11
2019-02-20T12:51:01.049Z,10
2019-02-20T12:56:09.773Z,10
2019-02-20T13:01:05.963Z,11
2019-02-20T13:06:08.433Z,9
2019-02-20T13:11:11.012Z,10
2019-02-20T13:16:13.523Z,10
2019-02-20T13:21:15.851Z,9
2019-02-20T13:26:18.265Z,11
2019-02-20T13:31:20.737Z,11
2019-02-20T13:36:23.184Z,11
2019-02-20T13:41:25.827Z,11
2019-02-20T13:46:28.125Z,12
2019-02-20T13:51:30.537Z,10
2019-02-20T13:56:33.018Z,11
2019-02-20T14:01:35.457Z,10
2019-02-20T14:06:37.910Z,9
2019-02-20T14:11:40.426Z,9
2019-02-20T14:16:42.844Z,10
2019-02-20T14:21:45.311Z,10
2019-02-20T14:26:47.756Z,9
2019-02-20T14:31:50.271Z,11
2019-02-20T14:36:52.674Z,12
2019-02-20T14:41:55.128Z,12
2019-02-20T14:46:57.576Z,13
2019-02-20T14:52:00.036Z,14
2019-02-20T14:57:02.786Z,13
2019-02-20T15:02:04.968Z,13
2019-02-20T15:07:07.406Z,13
2019-02-20T15:12:09.875Z,11
2019-02-20T15:17:12.395Z,11
2019-02-20T15:22:14.799Z,13
2019-02-20T15:27:19.096Z,18
2019-02-20T15:32:19.805Z,14
2019-02-20T15:37:22.184Z,13
2019-02-20T15:42:24.622Z,16
2019-02-20T15:47:27.093Z,13
2019-02-20T15:52:29.552Z,18
2019-02-20T15:57:37.980Z,20
2019-02-20T16:02:34.557Z,14
2019-02-20T16:07:37.031Z,17
2019-02-20T16:12:39.385Z,13
2019-02-20T16:17:41.801Z,13
2019-02-20T16:22:44.574Z,12
2019-02-20T16:27:47.733Z,13
2019-02-20T16:32:51.109Z,10
2019-02-20T16:37:51.639Z,13
2019-02-20T16:42:54.094Z,15
2019-02-20T16:47:56.572Z,11
2019-02-20T16:52:59.028Z,11
2019-02-20T16:58:01.519Z,11
2019-02-20T17:03:03.947Z,31
2019-02-20T17:08:06.414Z,22
2019-02-20T17:13:08.848Z,27
2019-02-20T17:18:11.364Z,14
2019-02-20T17:23:13.844Z,12
2019-02-20T17:28:16.313Z,12
2019-02-20T17:33:18.700Z,11
2019-02-20T17:43:23.662Z,12
2019-02-20T17:48:26.066Z,24
2019-02-20T17:53:28.578Z,14
2019-02-20T17:58:31.069Z,12
2019-02-20T18:03:33.442Z,10
2019-02-20T18:08:35.895Z,11
2019-02-20T18:13:38.354Z,9
2019-02-20T18:18:40.806Z,9
2019-02-20T18:23:43.274Z,10
2019-02-20T18:28:45.771Z,10
2019-02-20T18:33:48.179Z,11
2019-02-20T18:38:50.679Z,11
2019-02-20T18:43:53.106Z,15
2019-02-20T18:48:55.545Z,12
2019-02-20T18:53:58.035Z,12
2019-02-20T18:59:00.475Z,21
2019-02-20T19:04:02.927Z,22
2019-02-20T19:09:05.371Z,12
2019-02-20T19:14:09.093Z,13
2019-02-20T19:19:10.389Z,11
2019-02-20T19:24:12.754Z,10
2019-02-20T19:29:15.319Z,20
2019-02-20T19:34:17.710Z,13
2019-02-20T19:39:20.211Z,15
2019-02-20T19:44:22.604Z,14
2019-02-20T19:49:25.070Z,12
2019-02-20T19:54:27.491Z,12
2019-02-20T19:59:29.979Z,12
2019-02-20T20:04:32.442Z,14
2019-02-20T20:09:34.873Z,11
2019-02-20T20:14:37.646Z,13
2019-02-20T20:19:39.848Z,14
2019-02-20T20:24:42.237Z,13
2019-02-20T20:29:44.735Z,12
2019-02-20T20:34:47.153Z,12
2019-02-20T20:39:49.609Z,14
2019-02-20T20:44:52.097Z,13
2019-02-20T20:49:54.501Z,13
2019-02-20T20:54:56.982Z,14
2019-02-20T20:59:59.446Z,19
2019-02-20T21:05:07.222Z,22
2019-02-20T21:10:04.378Z,23
2019-02-20T21:15:06.797Z,16
2019-02-20T21:20:09.251Z,14
2019-02-20T21:25:13.698Z,14
2019-02-20T21:30:14.219Z,16
2019-02-20T21:35:16.670Z,15
2019-02-20T21:40:19.078Z,15
2019-02-20T21:45:21.539Z,13
2019-02-20T21:50:24.011Z,15
2019-02-20T21:55:26.452Z,14
2019-02-20T22:00:28.954Z,14
2019-02-20T22:05:31.477Z,15
2019-02-20T22:10:33.868Z,12
2019-02-20T22:15:36.357Z,14
2019-02-20T22:20:39.713Z,14
2019-02-20T22:25:41.178Z,12
2019-02-20T22:30:43.651Z,13
2019-02-20T22:35:46.109Z,13
2019-02-20T22:40:48.559Z,12
2019-02-20T22:45:51.017Z,12
2019-02-20T22:50:53.509Z,13
2019-02-20T22:55:55.948Z,13
2019-02-20T23:00:58.443Z,11
2019-02-20T23:06:00.884Z,12
2019-02-20T23:11:03.321Z,14
2019-02-20T23:16:05.771Z,13
2019-02-20T23:21:08.245Z,14
2019-02-20T23:26:10.673Z,15
2019-02-20T23:31:13.149Z,14
2019-02-20T23:36:15.769Z,15
2019-02-20T23:41:18.060Z,12
2019-02-20T23:46:20.531Z,13
2019-02-20T23:51:22.974Z,14
2019-02-20T23:56:25.465Z,15
